sensor_id;sensor_type;location;lat;lon;timestamp;temperature;humidity
21883;DHT22;11106;47.864;13.054;2022-12-20T00:01:33;-1.00;99.90
21883;DHT22;11106;47.864;13.054;2022-12-20T00:06:35;-1.00;99.90
21883;DHT22;11106;47.864;13.054;2022-12-20T00:11:38;-0.90;99.90
21883;DHT22;11106;47.864;13.054;2022-12-20T00:16:40;-0.90;99.90
21883;DHT22;11106;47.864;13.054;2022-12-20T00:21:42;-0.90;99.90
21883;DHT22;11106;47.864;13.054;2022-12-20T00:26:42;-0.90;99.90
21883;DHT22;11106;47.864;13.054;2022-12-20T00:31:43;-0.80;99.90
21883;DHT22;11106;47.864;13.054;2022-12-20T00:36:44;-0.70;99.90
21883;DHT22;11106;47.864;13.054;2022-12-20T00:41:44;-0.70;99.90
21883;DHT22;11106;47.864;13.054;2022-12-20T00:46:45;-0.70;99.90
21883;DHT22;11106;47.864;13.054;2022-12-20T00:51:46;-0.60;99.90
21883;DHT22;11106;47.864;13.054;2022-12-20T00:56:46;-0.60;99.90
21883;DHT22;11106;47.864;13.054;2022-12-20T01:01:47;-0.60;99.90
21883;DHT22;11106;47.864;13.054;2022-12-20T01:06:48;-0.60;99.90
21883;DHT22;11106;47.864;13.054;2022-12-20T01:11:48;-0.50;99.90
21883;DHT22;11106;47.864;13.054;2022-12-20T01:16:49;-0.50;99.90
21883;DHT22;11106;47.864;13.054;2022-12-20T01:21:49;-0.60;99.90
21883;DHT22;11106;47.864;13.054;2022-12-20T01:26:50;-0.50;99.90
21883;DHT22;11106;47.864;13.054;2022-12-20T01:31:51;-0.50;99.90
21883;DHT22;11106;47.864;13.054;2022-12-20T01:36:53;-0.40;99.90
21883;DHT22;11106;47.864;13.054;2022-12-20T01:41:53;-0.30;99.90
21883;DHT22;11106;47.864;13.054;2022-12-20T01:46:54;-0.40;99.90
21883;DHT22;11106;47.864;13.054;2022-12-20T01:52:12;-0.30;99.90
21883;DHT22;11106;47.864;13.054;2022-12-20T01:57:26;-0.30;99.90
21883;DHT22;11106;47.864;13.054;2022-12-20T02:02:29;-0.20;99.90
21883;DHT22;11106;47.864;13.054;2022-12-20T02:07:33;-0.20;99.90
21883;DHT22;11106;47.864;13.054;2022-12-20T02:12:43;-0.10;99.90
21883;DHT22;11106;47.864;13.054;2022-12-20T02:33:46;-0.10;99.90
21883;DHT22;11106;47.864;13.054;2022-12-20T02:38:49;-0.10;99.90
21883;DHT22;11106;47.864;13.054;2022-12-20T02:43:55;-0.10;99.90
21883;DHT22;11106;47.864;13.054;2022-12-20T02:49:17;-0.10;99.90
21883;DHT22;11106;47.864;13.054;2022-12-20T02:54:20;-0.20;99.90
21883;DHT22;11106;47.864;13.054;2022-12-20T02:59:25;-0.10;99.90
21883;DHT22;11106;47.864;13.054;2022-12-20T03:04:30;-0.10;99.90
21883;DHT22;11106;47.864;13.054;2022-12-20T03:09:35;-0.10;99.90
21883;DHT22;11106;47.864;13.054;2022-12-20T03:14:37;-0.10;99.90
21883;DHT22;11106;47.864;13.054;2022-12-20T03:19:38;-0.10;99.90
21883;DHT22;11106;47.864;13.054;2022-12-20T03:24:38;-0.10;99.90
21883;DHT22;11106;47.864;13.054;2022-12-20T03:29:39;-0.10;99.90
21883;DHT22;11106;47.864;13.054;2022-12-20T03:34:40;0.00;99.90
21883;DHT22;11106;47.864;13.054;2022-12-20T03:39:40;0.00;99.90
21883;DHT22;11106;47.864;13.054;2022-12-20T03:44:41;0.00;99.90
21883;DHT22;11106;47.864;13.054;2022-12-20T03:49:42;0.00;99.90
21883;DHT22;11106;47.864;13.054;2022-12-20T03:54:42;0.00;99.90
21883;DHT22;11106;47.864;13.054;2022-12-20T03:59:43;0.10;99.90
21883;DHT22;11106;47.864;13.054;2022-12-20T04:04:44;0.00;99.90
21883;DHT22;11106;47.864;13.054;2022-12-20T04:09:45;0.10;99.90
21883;DHT22;11106;47.864;13.054;2022-12-20T04:14:45;0.10;99.90
21883;DHT22;11106;47.864;13.054;2022-12-20T04:19:46;0.10;99.90
21883;DHT22;11106;47.864;13.054;2022-12-20T04:24:47;0.10;99.90
21883;DHT22;11106;47.864;13.054;2022-12-20T04:29:48;0.10;99.90
21883;DHT22;11106;47.864;13.054;2022-12-20T04:34:49;0.10;99.90
21883;DHT22;11106;47.864;13.054;2022-12-20T04:39:49;0.10;99.90
21883;DHT22;11106;47.864;13.054;2022-12-20T04:44:50;0.10;99.90
21883;DHT22;11106;47.864;13.054;2022-12-20T04:49:50;0.10;99.90
21883;DHT22;11106;47.864;13.054;2022-12-20T04:54:51;0.10;99.90
21883;DHT22;11106;47.864;13.054;2022-12-20T04:59:52;0.00;99.90
21883;DHT22;11106;47.864;13.054;2022-12-20T05:04:52;0.00;99.90
21883;DHT22;11106;47.864;13.054;2022-12-20T05:09:53;0.00;99.90
21883;DHT22;11106;47.864;13.054;2022-12-20T05:14:54;0.00;99.90
21883;DHT22;11106;47.864;13.054;2022-12-20T05:19:54;-0.10;99.90
21883;DHT22;11106;47.864;13.054;2022-12-20T05:24:55;-0.10;99.90
21883;DHT22;11106;47.864;13.054;2022-12-20T05:30:14;-0.10;99.90
21883;DHT22;11106;47.864;13.054;2022-12-20T05:35:15;-0.10;99.90
21883;DHT22;11106;47.864;13.054;2022-12-20T05:40:16;-0.10;99.90
21883;DHT22;11106;47.864;13.054;2022-12-20T05:45:17;-0.10;99.90
21883;DHT22;11106;47.864;13.054;2022-12-20T05:50:18;-0.10;99.90
21883;DHT22;11106;47.864;13.054;2022-12-20T05:55:18;-0.20;99.90
21883;DHT22;11106;47.864;13.054;2022-12-20T06:00:19;-0.20;99.90
21883;DHT22;11106;47.864;13.054;2022-12-20T06:05:20;-0.20;99.90
21883;DHT22;11106;47.864;13.054;2022-12-20T06:10:20;-0.30;99.90
21883;DHT22;11106;47.864;13.054;2022-12-20T06:15:21;-0.20;99.90
21883;DHT22;11106;47.864;13.054;2022-12-20T06:20:22;-0.20;99.90
21883;DHT22;11106;47.864;13.054;2022-12-20T06:25:23;-0.20;99.90
21883;DHT22;11106;47.864;13.054;2022-12-20T06:30:24;-0.20;99.90
21883;DHT22;11106;47.864;13.054;2022-12-20T06:35:24;-0.20;99.90
21883;DHT22;11106;47.864;13.054;2022-12-20T06:40:25;-0.20;99.90
21883;DHT22;11106;47.864;13.054;2022-12-20T06:45:26;-0.20;99.90
21883;DHT22;11106;47.864;13.054;2022-12-20T06:50:26;-0.10;99.90
21883;DHT22;11106;47.864;13.054;2022-12-20T06:55:27;-0.10;99.90
21883;DHT22;11106;47.864;13.054;2022-12-20T07:00:28;-0.10;99.90
21883;DHT22;11106;47.864;13.054;2022-12-20T07:05:28;0.00;99.90
21883;DHT22;11106;47.864;13.054;2022-12-20T07:10:36;0.00;99.90
21883;DHT22;11106;47.864;13.054;2022-12-20T07:15:37;0.00;99.90
21883;DHT22;11106;47.864;13.054;2022-12-20T07:20:38;0.00;99.90
21883;DHT22;11106;47.864;13.054;2022-12-20T07:25:38;0.00;99.90
21883;DHT22;11106;47.864;13.054;2022-12-20T07:30:39;0.10;99.90
21883;DHT22;11106;47.864;13.054;2022-12-20T07:35:40;0.20;99.90
21883;DHT22;11106;47.864;13.054;2022-12-20T07:40:42;0.30;99.90
21883;DHT22;11106;47.864;13.054;2022-12-20T07:45:42;0.50;99.90
21883;DHT22;11106;47.864;13.054;2022-12-20T07:50:43;0.60;99.90
21883;DHT22;11106;47.864;13.054;2022-12-20T07:55:44;0.70;99.90
21883;DHT22;11106;47.864;13.054;2022-12-20T08:00:45;0.80;99.90
21883;DHT22;11106;47.864;13.054;2022-12-20T08:05:48;0.90;99.90
21883;DHT22;11106;47.864;13.054;2022-12-20T08:10:50;1.00;99.90
21883;DHT22;11106;47.864;13.054;2022-12-20T08:15:51;1.20;99.90
21883;DHT22;11106;47.864;13.054;2022-12-20T08:20:52;1.40;99.90
21883;DHT22;11106;47.864;13.054;2022-12-20T08:25:52;1.60;99.90
21883;DHT22;11106;47.864;13.054;2022-12-20T08:30:59;2.10;99.90
21883;DHT22;11106;47.864;13.054;2022-12-20T08:36:03;2.80;99.90
21883;DHT22;11106;47.864;13.054;2022-12-20T08:41:06;3.00;99.90
